createdAt,value
2022-10-18T00:00:10.863Z,17.6429
2022-10-18T00:01:10.907Z,17.6429
2022-10-18T00:02:11.032Z,17.6429
2022-10-18T00:03:10.956Z,17.6429
2022-10-18T00:04:10.983Z,17.6429
2022-10-18T00:05:11.009Z,17.6429
2022-10-18T00:06:11.045Z,17.6429
2022-10-18T00:07:11.079Z,17.6429
2022-10-18T00:08:11.115Z,17.6429
2022-10-18T00:09:11.132Z,17.6429
2022-10-18T00:10:11.171Z,17.6429
2022-10-18T00:11:11.202Z,17.6429
2022-10-18T00:12:11.230Z,17.6429
2022-10-18T00:13:11.270Z,17.5714
2022-10-18T00:14:11.291Z,17.5714
2022-10-18T00:15:11.315Z,17.5714
2022-10-18T00:16:11.348Z,17.5714
2022-10-18T00:17:11.374Z,17.5714
2022-10-18T00:18:11.408Z,17.5714
2022-10-18T00:19:11.432Z,17.5714
2022-10-18T00:20:11.462Z,17.5714
2022-10-18T00:21:11.500Z,17.5714
2022-10-18T00:22:11.534Z,17.5714
2022-10-18T00:23:11.564Z,17.5714
2022-10-18T00:24:11.600Z,17.5714
2022-10-18T00:25:11.633Z,17.5714
2022-10-18T00:26:11.670Z,17.5
2022-10-18T00:27:11.704Z,17.5
2022-10-18T00:28:11.736Z,17.5
2022-10-18T00:29:11.767Z,17.5
2022-10-18T00:30:11.801Z,17.4286
2022-10-18T00:31:11.839Z,17.5
2022-10-18T00:32:11.866Z,17.5
2022-10-18T00:33:11.897Z,17.5
2022-10-18T00:34:11.937Z,17.5
2022-10-18T00:35:11.967Z,17.5
2022-10-18T00:36:12.005Z,17.5
2022-10-18T00:37:12.042Z,17.5
2022-10-18T00:38:12.069Z,17.5
2022-10-18T00:39:12.109Z,17.5
2022-10-18T00:40:12.150Z,17.5
2022-10-18T00:41:12.181Z,17.5714
2022-10-18T00:42:12.220Z,17.5714
2022-10-18T00:43:12.252Z,17.5714
2022-10-18T00:44:12.288Z,17.5714
2022-10-18T00:45:12.319Z,17.5
2022-10-18T00:46:12.352Z,17.5
2022-10-18T00:47:12.381Z,17.5
2022-10-18T00:48:12.418Z,17.5
2022-10-18T00:49:12.450Z,17.5
2022-10-18T00:50:12.474Z,17.5
2022-10-18T00:51:12.504Z,17.5
2022-10-18T00:52:12.547Z,17.5
2022-10-18T00:53:12.573Z,17.5714
2022-10-18T00:54:12.599Z,17.5714
2022-10-18T00:55:12.637Z,17.5714
2022-10-18T00:56:12.666Z,17.5714
2022-10-18T00:57:12.689Z,17.5714
2022-10-18T00:58:12.720Z,17.5714
2022-10-18T00:59:12.750Z,17.5714
2022-10-18T01:00:12.785Z,17.6429
2022-10-18T01:01:12.843Z,17.6429
2022-10-18T01:02:12.913Z,17.6429
2022-10-18T01:03:12.878Z,17.6429
2022-10-18T01:04:12.916Z,17.6429
2022-10-18T01:05:12.954Z,17.6429
2022-10-18T01:06:12.982Z,17.6429
2022-10-18T01:07:13.021Z,17.6429
2022-10-18T01:08:13.047Z,17.6429
2022-10-18T01:09:13.080Z,17.6429
2022-10-18T01:10:13.116Z,17.6429
2022-10-18T01:11:13.154Z,17.6429
2022-10-18T01:12:13.187Z,17.6429
2022-10-18T01:13:13.217Z,17.7143
2022-10-18T01:14:13.252Z,17.7143
2022-10-18T01:15:13.278Z,17.6429
2022-10-18T01:16:13.314Z,17.6429
2022-10-18T01:17:13.347Z,17.6429
2022-10-18T01:18:13.388Z,17.6429
2022-10-18T01:19:13.423Z,17.6429
2022-10-18T01:20:13.452Z,17.6429
2022-10-18T01:21:13.500Z,17.6429
2022-10-18T01:22:13.517Z,17.6429
2022-10-18T01:23:13.545Z,17.6429
2022-10-18T01:24:13.569Z,17.6429
2022-10-18T01:25:13.602Z,17.6429
2022-10-18T01:26:13.639Z,17.6429
2022-10-18T01:27:13.665Z,17.6429
2022-10-18T01:28:13.702Z,17.6429
2022-10-18T01:29:13.740Z,17.6429
2022-10-18T01:30:13.768Z,17.6429
2022-10-18T01:31:13.803Z,17.5714
2022-10-18T01:32:13.827Z,17.5714
2022-10-18T01:33:13.863Z,17.5714
2022-10-18T01:34:13.902Z,17.6429
2022-10-18T01:35:13.923Z,17.6429
2022-10-18T01:36:13.979Z,17.6429
2022-10-18T01:37:13.992Z,17.6429
2022-10-18T01:38:14.017Z,17.6429
2022-10-18T01:39:14.495Z,17.6429
2022-10-18T01:40:14.077Z,17.6429
2022-10-18T01:41:15.813Z,17.6429
2022-10-18T01:42:14.143Z,17.6429
2022-10-18T01:43:14.173Z,17.7143
2022-10-18T01:44:14.206Z,17.7143
2022-10-18T01:45:14.242Z,17.7143
2022-10-18T01:46:14.279Z,17.7857
2022-10-18T01:47:14.314Z,17.7857
2022-10-18T01:48:14.345Z,17.7857
2022-10-18T01:49:14.375Z,17.7857
2022-10-18T01:50:14.408Z,17.7857
2022-10-18T01:51:14.441Z,17.7857
2022-10-18T01:52:14.477Z,17.7857
2022-10-18T01:53:14.508Z,17.8571
2022-10-18T01:54:14.542Z,17.8571
2022-10-18T01:55:14.584Z,17.8571
2022-10-18T01:56:14.616Z,17.8571
2022-10-18T01:57:14.646Z,17.8571
2022-10-18T01:58:14.676Z,17.9286
2022-10-18T01:59:14.701Z,17.9286
2022-10-18T02:00:14.726Z,17.9286
2022-10-18T02:01:14.789Z,17.9286
2022-10-18T02:02:14.791Z,18
2022-10-18T02:03:14.834Z,18
2022-10-18T02:04:14.848Z,18
2022-10-18T02:05:14.877Z,18
2022-10-18T02:06:14.907Z,18.0714
2022-10-18T02:07:14.940Z,18.0714
2022-10-18T02:08:22.868Z,18.0714
2022-10-18T02:09:14.992Z,18.0714
2022-10-18T02:11:15.074Z,18.1429
2022-10-18T02:12:15.093Z,18.1429
2022-10-18T02:13:15.123Z,18.1429
2022-10-18T02:14:15.158Z,18.1429
2022-10-18T02:15:15.190Z,18.2143
2022-10-18T02:16:15.222Z,18.2143
2022-10-18T02:17:15.256Z,18.2143
2022-10-18T02:18:15.294Z,18.2143
2022-10-18T02:19:15.384Z,18.2143
2022-10-18T02:20:15.364Z,18.2857
2022-10-18T02:21:15.402Z,18.2857
2022-10-18T02:22:15.440Z,18.2857
2022-10-18T02:23:15.469Z,18.2857
2022-10-18T02:24:15.492Z,18.2857
2022-10-18T02:25:15.524Z,18.3571
2022-10-18T02:26:15.555Z,18.3571
2022-10-18T02:27:15.586Z,18.3571
2022-10-18T02:28:15.737Z,18.3571
2022-10-18T02:29:15.657Z,18.3571
2022-10-18T02:30:15.689Z,18.3571
2022-10-18T02:31:15.730Z,18.3571
2022-10-18T02:32:15.763Z,18.3571
2022-10-18T02:33:15.801Z,18.3571
2022-10-18T02:34:15.834Z,18.4286
2022-10-18T02:35:15.865Z,18.4286
2022-10-18T02:36:15.898Z,18.4286
2022-10-18T02:37:16.003Z,18.4286
2022-10-18T02:38:15.964Z,18.4286
2022-10-18T02:39:16.005Z,18.4286
2022-10-18T02:40:16.039Z,18.4286
2022-10-18T02:41:16.075Z,18.4286
2022-10-18T02:42:16.107Z,18.4286
2022-10-18T02:43:16.142Z,18.4286
2022-10-18T02:44:16.168Z,18.4286
2022-10-18T02:45:16.207Z,18.5
2022-10-18T02:46:16.290Z,18.5
2022-10-18T02:47:16.274Z,18.4286
2022-10-18T02:48:16.307Z,18.4286
2022-10-18T02:49:16.346Z,18.4286
2022-10-18T02:50:16.378Z,18.5
2022-10-18T02:51:16.412Z,18.5
2022-10-18T02:52:16.438Z,18.5
2022-10-18T02:53:16.480Z,18.5
2022-10-18T02:54:16.511Z,18.5
2022-10-18T02:55:16.581Z,18.5
2022-10-18T02:56:16.571Z,18.5
2022-10-18T02:57:16.606Z,18.5
2022-10-18T02:58:16.637Z,18.4286
2022-10-18T02:59:16.670Z,18.5
2022-10-18T03:00:16.707Z,18.5
2022-10-18T03:01:16.835Z,18.5
2022-10-18T03:02:16.765Z,18.5
2022-10-18T03:03:16.799Z,18.5
2022-10-18T03:04:16.905Z,18.5
2022-10-18T03:05:16.871Z,18.5
2022-10-18T03:06:16.908Z,18.5
2022-10-18T03:07:16.937Z,18.5
2022-10-18T03:08:16.980Z,18.5
2022-10-18T03:09:17.003Z,18.5
2022-10-18T03:10:17.043Z,18.5
2022-10-18T03:11:17.078Z,18.5
2022-10-18T03:12:17.111Z,18.5
2022-10-18T03:13:17.188Z,18.5
2022-10-18T03:14:17.179Z,18.5
2022-10-18T03:15:17.206Z,18.5714
2022-10-18T03:16:17.243Z,18.5714
2022-10-18T03:17:17.277Z,18.5714
2022-10-18T03:18:17.310Z,18.5
2022-10-18T03:19:17.343Z,18.5714
2022-10-18T03:20:17.382Z,18.5714
2022-10-18T03:21:17.418Z,18.5714
2022-10-18T03:22:17.517Z,18.5714
2022-10-18T03:23:17.488Z,18.5714
2022-10-18T03:24:17.523Z,18.5714
2022-10-18T03:25:17.561Z,18.5714
2022-10-18T03:26:17.599Z,18.5714
2022-10-18T03:27:17.627Z,18.5714
2022-10-18T03:28:17.655Z,18.5714
2022-10-18T03:29:17.696Z,18.5714
2022-10-18T03:30:17.723Z,18.5714
2022-10-18T03:31:17.805Z,18.5714
2022-10-18T03:32:17.793Z,18.5714
2022-10-18T03:33:17.827Z,18.5714
2022-10-18T03:34:17.861Z,18.5714
2022-10-18T03:35:17.900Z,18.5714
2022-10-18T03:36:17.935Z,18.5
2022-10-18T03:37:17.962Z,18.5
2022-10-18T03:38:17.995Z,18.5
2022-10-18T03:39:18.026Z,18.5
2022-10-18T03:40:18.148Z,18.5
2022-10-18T03:41:18.086Z,18.5
2022-10-18T03:42:18.158Z,18.5
2022-10-18T03:43:18.166Z,18.5
2022-10-18T03:44:18.196Z,18.5
2022-10-18T03:45:18.236Z,18.5
2022-10-18T03:46:18.267Z,18.5
2022-10-18T03:47:18.305Z,18.5
2022-10-18T03:48:18.337Z,18.5
2022-10-18T03:49:18.375Z,18.5
2022-10-18T03:50:18.401Z,18.5
2022-10-18T03:51:18.427Z,18.5
2022-10-18T03:52:18.467Z,18.5
2022-10-18T03:53:18.495Z,18.5
2022-10-18T03:54:18.529Z,18.5
2022-10-18T03:55:18.563Z,18.5
2022-10-18T03:56:18.587Z,18.5
2022-10-18T03:57:18.616Z,18.5
2022-10-18T03:58:18.649Z,18.5
2022-10-18T03:59:18.682Z,18.5
2022-10-18T04:00:18.723Z,18.5
2022-10-18T04:01:18.822Z,18.4286
2022-10-18T04:02:18.795Z,18.4286
2022-10-18T04:03:18.832Z,18.4286
2022-10-18T04:04:18.863Z,18.4286
2022-10-18T04:05:18.889Z,18.4286
2022-10-18T04:06:18.919Z,18.4286
2022-10-18T04:07:18.950Z,18.4286
2022-10-18T04:08:18.982Z,18.4286
2022-10-18T04:09:19.010Z,18.3571
2022-10-18T04:10:19.047Z,18.3571
2022-10-18T04:11:19.068Z,18.3571
2022-10-18T04:12:19.101Z,18.3571
2022-10-18T04:13:19.163Z,18.3571
2022-10-18T04:14:19.170Z,18.3571
2022-10-18T04:15:19.195Z,18.3571
2022-10-18T04:16:19.232Z,18.3571
2022-10-18T04:17:19.263Z,18.3571
2022-10-18T04:18:19.298Z,18.3571
2022-10-18T04:19:19.325Z,18.3571
2022-10-18T04:20:19.354Z,18.3571
2022-10-18T04:21:19.382Z,18.3571
2022-10-18T04:22:19.420Z,18.3571
2022-10-18T04:23:19.449Z,18.3571
2022-10-18T04:24:19.483Z,18.2857
2022-10-18T04:25:19.508Z,18.2857
2022-10-18T04:26:19.543Z,18.2857
2022-10-18T04:27:19.568Z,18.2857
2022-10-18T04:28:19.606Z,18.2857
2022-10-18T04:29:19.641Z,18.2857
2022-10-18T04:30:19.664Z,18.2857
2022-10-18T04:31:19.699Z,18.2857
2022-10-18T04:32:19.739Z,18.2143
2022-10-18T04:33:19.763Z,18.2143
2022-10-18T04:34:19.793Z,18.2143
2022-10-18T04:35:19.830Z,18.2143
2022-10-18T04:36:19.862Z,18.2143
2022-10-18T04:37:19.880Z,18.2143
2022-10-18T04:38:19.914Z,18.2143
2022-10-18T04:39:19.960Z,18.2143
2022-10-18T04:40:19.993Z,18.2143
2022-10-18T04:41:20.027Z,18.2143
2022-10-18T04:42:20.063Z,18.1429
2022-10-18T04:43:20.093Z,18.1429
2022-10-18T04:44:20.135Z,18.1429
2022-10-18T04:45:20.171Z,18.1429
2022-10-18T04:46:20.203Z,18.1429
2022-10-18T04:47:20.266Z,18.1429
2022-10-18T04:48:20.276Z,18.1429
2022-10-18T04:49:20.308Z,18.1429
2022-10-18T04:50:20.335Z,18.0714
2022-10-18T04:51:20.370Z,18.0714
2022-10-18T04:52:20.410Z,18.0714
2022-10-18T04:53:20.444Z,18.0714
2022-10-18T04:54:21.895Z,18.0714
2022-10-18T04:55:20.493Z,18.0714
2022-10-18T04:56:20.522Z,18.0714
2022-10-18T04:57:20.547Z,18.0714
2022-10-18T04:58:20.577Z,18.0714
2022-10-18T04:59:20.613Z,18.0714
2022-10-18T05:00:20.640Z,18.0714
2022-10-18T05:01:20.691Z,18.0714
2022-10-18T05:02:20.708Z,18.0714
2022-10-18T05:03:20.738Z,18.0714
2022-10-18T05:04:20.790Z,18
2022-10-18T05:05:20.819Z,18
2022-10-18T05:06:20.853Z,18
2022-10-18T05:07:20.900Z,18
2022-10-18T05:08:20.920Z,18
2022-10-18T05:09:20.946Z,18
2022-10-18T05:10:20.987Z,18
2022-10-18T05:11:21.026Z,18
2022-10-18T05:12:21.059Z,18
2022-10-18T05:13:21.093Z,18
2022-10-18T05:14:21.128Z,18
2022-10-18T05:15:21.156Z,18
2022-10-18T05:16:21.196Z,18
2022-10-18T05:17:21.220Z,18
2022-10-18T05:18:21.250Z,18
2022-10-18T05:19:21.297Z,18
2022-10-18T05:20:21.332Z,17.9286
2022-10-18T05:21:21.358Z,17.9286
2022-10-18T05:22:21.407Z,17.9286
2022-10-18T05:23:21.423Z,17.9286
2022-10-18T05:24:24.152Z,17.9286
2022-10-18T05:25:21.499Z,17.9286
2022-10-18T05:26:21.530Z,17.9286
2022-10-18T05:27:21.560Z,17.9286
2022-10-18T05:28:38.607Z,17.9286
2022-10-18T05:29:21.785Z,17.9286
2022-10-18T05:30:21.655Z,17.9286
2022-10-18T05:31:21.683Z,17.9286
2022-10-18T05:32:21.713Z,17.8571
2022-10-18T05:33:21.751Z,17.8571
2022-10-18T05:34:21.785Z,17.8571
2022-10-18T05:35:21.818Z,17.8571
2022-10-18T05:36:21.857Z,17.8571
2022-10-18T05:37:26.102Z,17.8571
2022-10-18T05:38:21.951Z,17.8571
2022-10-18T05:39:21.951Z,17.7857
2022-10-18T05:40:21.982Z,17.7857
2022-10-18T05:41:22.010Z,17.7857
2022-10-18T05:42:22.039Z,17.7857
2022-10-18T05:43:22.083Z,17.8571
2022-10-18T05:44:22.113Z,17.7857
2022-10-18T05:45:22.147Z,17.7857
2022-10-18T05:46:22.176Z,17.7857
2022-10-18T05:47:22.287Z,17.7857
2022-10-18T05:48:22.254Z,17.7857
2022-10-18T05:49:22.285Z,17.7857
2022-10-18T05:50:22.314Z,17.7857
2022-10-18T05:51:22.351Z,17.7857
2022-10-18T05:52:22.385Z,17.7857
2022-10-18T05:53:36.171Z,17.7857
2022-10-18T05:54:22.446Z,17.7857
2022-10-18T05:55:22.482Z,17.7857
2022-10-18T05:56:22.513Z,17.7857
2022-10-18T05:57:22.543Z,17.7857
2022-10-18T05:58:22.573Z,17.7857
2022-10-18T05:59:22.606Z,17.7857
2022-10-18T06:00:22.637Z,17.7857
2022-10-18T06:01:22.672Z,17.7857
2022-10-18T06:02:22.758Z,17.7143
2022-10-18T06:03:22.738Z,17.7857
2022-10-18T06:04:22.765Z,17.7857
2022-10-18T06:05:22.806Z,17.7857
2022-10-18T06:06:22.835Z,17.7857
2022-10-18T06:07:22.868Z,17.7857
2022-10-18T06:08:22.898Z,17.7857
2022-10-18T06:09:22.930Z,17.7857
2022-10-18T06:10:22.963Z,17.7857
2022-10-18T06:11:22.989Z,17.7857
2022-10-18T06:12:23.029Z,17.7857
2022-10-18T06:13:23.052Z,17.7857
2022-10-18T06:14:23.086Z,17.7857
2022-10-18T06:15:23.127Z,17.7857
2022-10-18T06:16:23.233Z,17.7857
2022-10-18T06:17:23.190Z,17.7857
2022-10-18T06:18:23.230Z,17.7857
2022-10-18T06:19:23.261Z,17.7857
2022-10-18T06:20:23.297Z,17.7143
2022-10-18T06:21:23.336Z,17.7143
2022-10-18T06:22:23.376Z,17.7143
2022-10-18T06:23:23.410Z,17.7143
2022-10-18T06:24:23.443Z,17.7143
2022-10-18T06:25:23.473Z,17.7143
2022-10-18T06:26:23.510Z,17.7143
2022-10-18T06:27:23.542Z,17.7143
2022-10-18T06:28:23.628Z,17.7143
2022-10-18T06:29:23.600Z,17.7143
2022-10-18T06:30:23.636Z,17.7143
2022-10-18T06:31:23.667Z,17.7143
2022-10-18T06:32:23.696Z,17.7143
2022-10-18T06:33:23.726Z,17.7143
2022-10-18T06:34:23.761Z,17.7143
2022-10-18T06:35:23.801Z,17.7143
2022-10-18T06:36:23.827Z,17.7143
2022-10-18T06:37:23.912Z,17.7143
2022-10-18T06:38:23.891Z,17.7857
2022-10-18T06:39:23.928Z,17.7857
2022-10-18T06:40:24.085Z,17.7857
2022-10-18T06:41:23.990Z,17.7857
2022-10-18T06:42:24.018Z,17.7857
2022-10-18T06:43:24.058Z,17.7857
2022-10-18T06:44:24.077Z,17.7857
2022-10-18T06:45:24.117Z,17.7857
2022-10-18T06:46:24.134Z,17.7857
2022-10-18T06:47:24.167Z,17.7857
2022-10-18T06:48:24.197Z,17.8571
2022-10-18T06:49:24.224Z,17.8571
2022-10-18T06:50:24.357Z,17.8571
2022-10-18T06:51:24.302Z,17.8571
2022-10-18T06:52:24.332Z,17.8571
2022-10-18T06:53:24.365Z,17.8571
2022-10-18T06:54:24.399Z,17.8571
2022-10-18T06:55:24.427Z,17.8571
2022-10-18T06:56:24.460Z,17.8571
2022-10-18T06:57:24.494Z,17.8571
2022-10-18T06:58:24.519Z,17.8571
2022-10-18T06:59:27.505Z,17.8571
2022-10-18T07:00:24.580Z,17.8571
2022-10-18T07:01:24.627Z,17.8571
2022-10-18T07:02:24.623Z,17.9286
2022-10-18T07:03:24.652Z,17.9286
2022-10-18T07:04:24.689Z,17.9286
2022-10-18T07:05:24.749Z,17.9286
2022-10-18T07:06:24.753Z,17.9286
2022-10-18T07:07:24.780Z,17.9286
2022-10-18T07:08:24.815Z,17.9286
2022-10-18T07:09:24.845Z,17.9286
2022-10-18T07:10:24.869Z,18
2022-10-18T07:11:24.898Z,18
2022-10-18T07:12:24.930Z,18
2022-10-18T07:13:32.294Z,18
2022-10-18T07:14:28.789Z,18
2022-10-18T07:15:25.077Z,18.0714
2022-10-18T07:16:25.055Z,18.0714
2022-10-18T07:17:25.083Z,18.0714
2022-10-18T07:18:25.114Z,18.0714
2022-10-18T07:19:25.145Z,18.0714
2022-10-18T07:20:25.183Z,18.1429
2022-10-18T07:21:25.216Z,18.1429
2022-10-18T07:22:29.440Z,18.1429
2022-10-18T07:23:25.286Z,18.1429
2022-10-18T07:24:25.345Z,18.1429
2022-10-18T07:25:27.139Z,18.2143
2022-10-18T07:26:25.377Z,18.2143
2022-10-18T07:27:25.398Z,18.2143
2022-10-18T07:28:25.487Z,18.2143
2022-10-18T07:29:25.474Z,18.2143
2022-10-18T07:30:25.528Z,18.2143
2022-10-18T07:31:25.531Z,18.2143
2022-10-18T07:32:25.562Z,18.2857
2022-10-18T07:33:25.596Z,18.2857
2022-10-18T07:34:25.628Z,18.2857
2022-10-18T07:35:25.663Z,18.2857
2022-10-18T07:36:25.694Z,18.2857
2022-10-18T07:37:27.939Z,18.2857
2022-10-18T07:38:25.757Z,18.2857
2022-10-18T07:39:25.790Z,18.2857
2022-10-18T07:40:25.818Z,18.2857
2022-10-18T07:41:25.850Z,18.3571
2022-10-18T07:42:25.879Z,18.3571
2022-10-18T07:43:25.905Z,18.3571
2022-10-18T07:44:25.943Z,18.3571
2022-10-18T07:45:26.030Z,18.3571
2022-10-18T07:46:25.997Z,18.3571
2022-10-18T07:47:27.325Z,18.3571
2022-10-18T07:48:26.058Z,18.3571
2022-10-18T07:49:26.088Z,18.3571
2022-10-18T07:50:26.119Z,18.3571
2022-10-18T07:51:26.153Z,18.3571
2022-10-18T07:52:26.245Z,18.3571
2022-10-18T07:53:26.221Z,18.3571
2022-10-18T07:54:26.239Z,18.3571
2022-10-18T07:55:26.267Z,18.2857
2022-10-18T07:56:26.306Z,18.2857
2022-10-18T07:57:26.338Z,18.2857
2022-10-18T07:58:26.374Z,18.2857
2022-10-18T07:59:26.411Z,18.2857
2022-10-18T08:00:26.442Z,18.2857
2022-10-18T08:01:26.502Z,18.2857
2022-10-18T08:02:26.512Z,18.3571
2022-10-18T08:03:26.545Z,18.3571
2022-10-18T08:04:26.583Z,18.3571
2022-10-18T08:05:26.682Z,18.3571
2022-10-18T08:06:26.633Z,18.3571
2022-10-18T08:07:26.667Z,18.3571
2022-10-18T08:08:26.699Z,18.3571
2022-10-18T08:09:26.731Z,18.3571
2022-10-18T08:10:26.759Z,18.3571
2022-10-18T08:11:26.796Z,18.3571
2022-10-18T08:12:26.830Z,18.3571
2022-10-18T08:13:26.860Z,18.3571
2022-10-18T08:14:26.890Z,18.3571
2022-10-18T08:15:26.924Z,18.3571
2022-10-18T08:16:26.992Z,18.3571
2022-10-18T08:17:26.989Z,18.3571
2022-10-18T08:18:27.011Z,18.3571
2022-10-18T08:19:27.049Z,18.3571
2022-10-18T08:20:30.775Z,18.3571
2022-10-18T08:21:27.111Z,18.2857
2022-10-18T08:22:27.140Z,18.2857
2022-10-18T08:23:27.168Z,18.2857
2022-10-18T08:24:27.265Z,18.2857
2022-10-18T08:25:27.338Z,18.2857
2022-10-18T08:26:27.283Z,18.2857
2022-10-18T08:27:27.314Z,18.2857
2022-10-18T08:28:27.367Z,18.2143
2022-10-18T08:29:31.535Z,18.2143
2022-10-18T08:30:27.417Z,18.2143
2022-10-18T08:31:27.439Z,18.2143
2022-10-18T08:32:27.461Z,18.2143
2022-10-18T08:33:27.489Z,18.2857
2022-10-18T08:34:27.541Z,18.2857
2022-10-18T08:35:27.550Z,18.2857
2022-10-18T08:36:27.576Z,18.2857
2022-10-18T08:37:27.611Z,18.2857
2022-10-18T08:38:27.640Z,18.2857
2022-10-18T08:39:27.672Z,18.2857
2022-10-18T08:40:27.709Z,18.2857
2022-10-18T08:41:27.736Z,18.2857
2022-10-18T08:42:27.774Z,18.2857
2022-10-18T08:43:27.832Z,18.2857
2022-10-18T08:44:27.839Z,18.2857
2022-10-18T08:45:37.731Z,18.2857
2022-10-18T08:46:27.910Z,18.2857
2022-10-18T08:47:27.939Z,18.2857
2022-10-18T08:48:27.969Z,18.2857
2022-10-18T08:49:28.028Z,18.2857
2022-10-18T08:50:28.022Z,18.2857
2022-10-18T08:51:28.061Z,18.2857
2022-10-18T08:52:28.145Z,18.2857
2022-10-18T08:53:28.122Z,18.2857
2022-10-18T08:54:28.158Z,18.3571
2022-10-18T08:55:28.194Z,18.3571
2022-10-18T08:56:28.220Z,18.3571
2022-10-18T08:57:28.256Z,18.3571
2022-10-18T08:58:28.294Z,18.3571
2022-10-18T08:59:28.327Z,18.3571
2022-10-18T09:00:28.380Z,18.3571
2022-10-18T09:01:28.389Z,18.3571
2022-10-18T09:02:28.418Z,18.3571
2022-10-18T09:03:28.498Z,18.4286
2022-10-18T09:04:28.480Z,18.4286
2022-10-18T09:05:28.514Z,18.4286
2022-10-18T09:06:28.541Z,18.4286
2022-10-18T09:07:28.577Z,18.4286
2022-10-18T09:08:28.614Z,18.4286
2022-10-18T09:09:28.640Z,18.4286
2022-10-18T09:10:28.671Z,18.4286
2022-10-18T09:11:28.708Z,18.4286
2022-10-18T09:12:29.043Z,18.4286
2022-10-18T09:13:28.775Z,18.4286
2022-10-18T09:14:28.812Z,18.4286
2022-10-18T09:15:28.832Z,18.4286
2022-10-18T09:16:28.869Z,18.4286
2022-10-18T09:17:28.905Z,18.4286
2022-10-18T09:18:28.939Z,18.4286
2022-10-18T09:19:28.969Z,18.4286
2022-10-18T09:20:29.000Z,18.4286
2022-10-18T09:21:29.029Z,18.4286
2022-10-18T09:22:29.315Z,18.4286
2022-10-18T09:23:29.103Z,18.4286
2022-10-18T09:24:29.137Z,18.4286
2022-10-18T09:25:29.166Z,18.4286
2022-10-18T09:26:29.191Z,18.4286
2022-10-18T09:27:29.225Z,18.4286
2022-10-18T09:28:29.323Z,18.4286
2022-10-18T09:29:29.274Z,18.4286
2022-10-18T09:30:29.320Z,18.4286
2022-10-18T09:31:29.334Z,18.4286
2022-10-18T09:32:29.719Z,18.4286
2022-10-18T09:33:29.401Z,18.4286
2022-10-18T09:34:29.439Z,18.4286
2022-10-18T09:35:29.469Z,18.4286
2022-10-18T09:36:29.502Z,18.5
2022-10-18T09:37:29.537Z,18.5
2022-10-18T09:38:29.570Z,18.5
2022-10-18T09:39:29.596Z,18.5
2022-10-18T09:40:29.626Z,18.5
2022-10-18T09:41:29.659Z,18.5714
2022-10-18T09:42:29.947Z,18.5714
2022-10-18T09:43:29.723Z,18.5714
2022-10-18T09:44:29.748Z,18.5714
2022-10-18T09:45:29.774Z,18.5714
2022-10-18T09:46:29.808Z,18.5714
2022-10-18T09:48:29.886Z,18.5714
2022-10-18T09:49:29.909Z,18.5714
2022-10-18T09:50:29.940Z,18.5714
2022-10-18T09:51:29.974Z,18.5714
2022-10-18T09:52:30.380Z,18.5714
2022-10-18T09:53:30.033Z,18.5714
2022-10-18T09:54:30.064Z,18.5714
2022-10-18T09:55:30.101Z,18.5714
2022-10-18T09:56:30.135Z,18.5714
2022-10-18T09:57:30.465Z,18.5714
2022-10-18T09:58:30.203Z,18.5714
2022-10-18T09:59:30.237Z,18.5714
2022-10-18T10:00:30.272Z,18.5714
2022-10-18T10:01:30.309Z,18.5714
2022-10-18T10:02:30.403Z,18.5714
2022-10-18T10:03:30.377Z,18.5714
2022-10-18T10:04:30.413Z,18.5714
2022-10-18T10:05:30.443Z,18.5
2022-10-18T10:06:30.476Z,18.5
2022-10-18T10:07:34.007Z,18.5
2022-10-18T10:08:30.540Z,18.5
2022-10-18T10:09:30.565Z,18.5
2022-10-18T10:10:30.604Z,18.5
2022-10-18T10:11:30.633Z,18.5
2022-10-18T10:12:30.667Z,18.5
2022-10-18T10:13:30.698Z,18.5
2022-10-18T10:14:30.760Z,18.5
2022-10-18T10:15:35.356Z,18.5
2022-10-18T10:16:30.790Z,18.5
2022-10-18T10:17:31.235Z,18.5
2022-10-18T10:18:30.853Z,18.5
2022-10-18T10:19:30.882Z,18.5
2022-10-18T10:20:30.912Z,18.5714
2022-10-18T10:21:30.942Z,18.5714
2022-10-18T10:22:30.984Z,18.5714
2022-10-18T10:23:31.002Z,18.5714
2022-10-18T10:24:31.342Z,18.5714
2022-10-18T10:25:31.059Z,18.5714
2022-10-18T10:26:31.092Z,18.5714
2022-10-18T10:27:31.357Z,18.5714
2022-10-18T10:28:31.198Z,18.5714
2022-10-18T10:29:44.176Z,18.5714
2022-10-18T10:30:31.216Z,18.5714
2022-10-18T10:31:31.248Z,18.5714
2022-10-18T10:32:31.304Z,18.5714
2022-10-18T10:33:31.322Z,18.5714
2022-10-18T10:34:31.350Z,18.5714
2022-10-18T10:35:49.272Z,18.5714
2022-10-18T10:36:31.428Z,18.6429
2022-10-18T10:37:31.708Z,18.6429
2022-10-18T10:38:31.487Z,18.6429
2022-10-18T10:39:31.512Z,18.6429
2022-10-18T10:40:31.543Z,18.6429
2022-10-18T10:42:31.857Z,18.6429
2022-10-18T10:43:37.517Z,18.6429
2022-10-18T10:44:31.664Z,18.6429
2022-10-18T10:45:31.693Z,18.6429
2022-10-18T10:46:31.726Z,18.5714
2022-10-18T10:47:31.766Z,18.6429
2022-10-18T10:48:33.405Z,18.6429
2022-10-18T10:49:40.134Z,18.6429
2022-10-18T10:50:31.857Z,18.6429
2022-10-18T10:51:31.891Z,18.6429
2022-10-18T10:52:31.924Z,18.7143
2022-10-18T10:53:31.947Z,18.7143
2022-10-18T10:54:31.999Z,18.7143
2022-10-18T10:55:35.368Z,18.7143
2022-10-18T10:56:32.059Z,18.7143
2022-10-18T10:57:32.066Z,18.7857
2022-10-18T10:58:32.099Z,18.7857
2022-10-18T10:59:32.177Z,18.7857
2022-10-18T11:00:32.158Z,18.7857
2022-10-18T11:01:32.193Z,18.7857
2022-10-18T11:02:32.620Z,18.7857
2022-10-18T11:03:32.326Z,18.7857
2022-10-18T11:04:32.297Z,18.7857
2022-10-18T11:05:32.319Z,18.7857
2022-10-18T11:06:32.349Z,18.7857
2022-10-18T11:07:32.375Z,18.7857
2022-10-18T11:08:32.428Z,18.7857
2022-10-18T11:09:32.435Z,18.7857
2022-10-18T11:10:32.466Z,18.7857
2022-10-18T11:11:32.499Z,18.7857
2022-10-18T11:12:32.790Z,18.7857
2022-10-18T11:13:32.550Z,18.8571
2022-10-18T11:14:32.585Z,18.8571
2022-10-18T11:15:32.616Z,18.8571
2022-10-18T11:16:32.666Z,18.9286
2022-10-18T11:17:32.687Z,18.9286
2022-10-18T11:18:32.725Z,18.9286
2022-10-18T11:19:32.748Z,18.9286
2022-10-18T11:20:32.776Z,18.9286
2022-10-18T11:21:32.803Z,18.9286
2022-10-18T11:22:33.110Z,18.9286
2022-10-18T11:23:32.855Z,18.9286
2022-10-18T11:24:32.888Z,18.9286
2022-10-18T11:25:32.917Z,18.9286
2022-10-18T11:26:32.963Z,18.9286
2022-10-18T11:27:32.970Z,18.9286
2022-10-18T11:28:33.054Z,18.9286
2022-10-18T11:29:33.032Z,18.9286
2022-10-18T11:30:33.055Z,18.9286
2022-10-18T11:31:33.088Z,18.9286
2022-10-18T11:32:33.605Z,18.9286
2022-10-18T11:33:56.255Z,18.9286
2022-10-18T11:34:33.181Z,18.9286
2022-10-18T11:35:33.205Z,18.9286
2022-10-18T11:36:35.228Z,18.9286
2022-10-18T11:37:36.043Z,18.9286
2022-10-18T11:38:33.314Z,18.9286
2022-10-18T11:39:33.350Z,19
2022-10-18T11:40:33.387Z,19
2022-10-18T11:41:33.406Z,19
2022-10-18T11:42:35.667Z,19
2022-10-18T11:43:57.071Z,19
2022-10-18T11:44:33.504Z,19
2022-10-18T11:45:33.543Z,19.0714
2022-10-18T11:46:33.575Z,19.0714
2022-10-18T11:47:33.990Z,19.0714
2022-10-18T11:48:33.634Z,19.0714
2022-10-18T11:49:33.670Z,19.1429
2022-10-18T11:50:33.696Z,19.1429
2022-10-18T11:51:34.333Z,19.1429
2022-10-18T11:52:33.792Z,19.1429
2022-10-18T11:53:33.786Z,19.1429
2022-10-18T11:54:33.871Z,19.1429
2022-10-18T11:55:33.842Z,19.1429
2022-10-18T11:56:33.871Z,19.1429
2022-10-18T11:57:34.392Z,19.1429
2022-10-18T11:58:33.957Z,19.2143
2022-10-18T11:59:33.975Z,19.2143
2022-10-18T12:00:34.000Z,19.2143
2022-10-18T12:01:34.019Z,19.2143
2022-10-18T12:02:34.581Z,19.2143
2022-10-18T12:03:34.104Z,19.2143
2022-10-18T12:04:34.106Z,19.2143
2022-10-18T12:05:34.141Z,19.2143
2022-10-18T12:06:34.176Z,19.2143
2022-10-18T12:07:34.208Z,19.2143
2022-10-18T12:08:34.241Z,19.1429
2022-10-18T12:09:34.270Z,19.1429
2022-10-18T12:10:46.003Z,19.1429
2022-10-18T12:11:34.342Z,19.1429
2022-10-18T12:12:34.682Z,19.1429
2022-10-18T12:13:34.401Z,19.1429
2022-10-18T12:14:34.429Z,19.0714
2022-10-18T12:15:34.463Z,19.0714
2022-10-18T12:16:50.363Z,19.0714
2022-10-18T12:17:42.731Z,19.0714
2022-10-18T12:18:34.545Z,19.0714
2022-10-18T12:19:34.580Z,19.0714
2022-10-18T12:20:34.617Z,19.0714
2022-10-18T12:21:34.649Z,19.1429
2022-10-18T12:22:35.016Z,19.1429